sensor_id;sensor_type;location;lat;lon;timestamp;temperature;humidity
17495;DHT22;8864;51.970;4.614;2022-09-16T00:01:40;21.80;64.00
17495;DHT22;8864;51.970;4.614;2022-09-16T00:04:07;21.70;63.80
17495;DHT22;8864;51.970;4.614;2022-09-16T00:06:34;21.70;63.80
17495;DHT22;8864;51.970;4.614;2022-09-16T00:09:01;21.70;63.60
17495;DHT22;8864;51.970;4.614;2022-09-16T00:11:28;21.70;63.70
17495;DHT22;8864;51.970;4.614;2022-09-16T00:13:58;21.70;63.80
17495;DHT22;8864;51.970;4.614;2022-09-16T00:16:26;21.70;63.50
17495;DHT22;8864;51.970;4.614;2022-09-16T00:18:56;21.70;63.70
17495;DHT22;8864;51.970;4.614;2022-09-16T00:21:24;21.70;63.80
17495;DHT22;8864;51.970;4.614;2022-09-16T00:23:52;21.70;63.80
17495;DHT22;8864;51.970;4.614;2022-09-16T00:26:18;21.70;63.80
17495;DHT22;8864;51.970;4.614;2022-09-16T00:28:47;21.70;63.80
17495;DHT22;8864;51.970;4.614;2022-09-16T00:31:15;21.70;63.80
17495;DHT22;8864;51.970;4.614;2022-09-16T00:33:42;21.70;63.80
17495;DHT22;8864;51.970;4.614;2022-09-16T00:36:12;21.70;63.70
17495;DHT22;8864;51.970;4.614;2022-09-16T00:38:40;21.60;63.00
17495;DHT22;8864;51.970;4.614;2022-09-16T00:41:07;21.50;63.50
17495;DHT22;8864;51.970;4.614;2022-09-16T00:43:53;21.50;63.30
17495;DHT22;8864;51.970;4.614;2022-09-16T00:46:25;21.50;63.60
17495;DHT22;8864;51.970;4.614;2022-09-16T00:48:54;21.50;63.80
17495;DHT22;8864;51.970;4.614;2022-09-16T00:51:22;21.50;63.90
17495;DHT22;8864;51.970;4.614;2022-09-16T00:53:53;21.50;64.00
17495;DHT22;8864;51.970;4.614;2022-09-16T00:56:24;21.50;64.00
17495;DHT22;8864;51.970;4.614;2022-09-16T00:58:55;21.50;64.00
17495;DHT22;8864;51.970;4.614;2022-09-16T01:01:27;21.50;64.10
17495;DHT22;8864;51.970;4.614;2022-09-16T01:03:57;21.50;64.00
17495;DHT22;8864;51.970;4.614;2022-09-16T01:06:26;21.50;64.10
17495;DHT22;8864;51.970;4.614;2022-09-16T01:08:55;21.50;64.10
17495;DHT22;8864;51.970;4.614;2022-09-16T01:11:25;21.50;64.00
17495;DHT22;8864;51.970;4.614;2022-09-16T01:13:52;21.50;64.30
17495;DHT22;8864;51.970;4.614;2022-09-16T01:16:24;21.50;64.20
17495;DHT22;8864;51.970;4.614;2022-09-16T01:18:57;21.50;64.20
17495;DHT22;8864;51.970;4.614;2022-09-16T01:21:39;21.50;64.00
17495;DHT22;8864;51.970;4.614;2022-09-16T01:24:23;21.50;63.70
17495;DHT22;8864;51.970;4.614;2022-09-16T01:30:13;21.40;64.10
17495;DHT22;8864;51.970;4.614;2022-09-16T01:32:56;21.40;64.00
17495;DHT22;8864;51.970;4.614;2022-09-16T01:35:53;21.40;64.20
17495;DHT22;8864;51.970;4.614;2022-09-16T01:38:33;21.40;64.20
17495;DHT22;8864;51.970;4.614;2022-09-16T01:41:08;21.40;64.20
17495;DHT22;8864;51.970;4.614;2022-09-16T01:43:42;21.40;64.20
17495;DHT22;8864;51.970;4.614;2022-09-16T01:46:17;21.40;64.30
17495;DHT22;8864;51.970;4.614;2022-09-16T01:48:52;21.40;64.30
17495;DHT22;8864;51.970;4.614;2022-09-16T01:51:24;21.40;64.40
17495;DHT22;8864;51.970;4.614;2022-09-16T01:53:54;21.40;64.50
17495;DHT22;8864;51.970;4.614;2022-09-16T01:56:28;21.40;64.50
17495;DHT22;8864;51.970;4.614;2022-09-16T01:58:59;21.50;64.40
17495;DHT22;8864;51.970;4.614;2022-09-16T02:01:31;21.50;64.60
17495;DHT22;8864;51.970;4.614;2022-09-16T02:04:03;21.50;64.60
17495;DHT22;8864;51.970;4.614;2022-09-16T02:06:32;21.50;64.60
17495;DHT22;8864;51.970;4.614;2022-09-16T02:09:04;21.50;64.60
17495;DHT22;8864;51.970;4.614;2022-09-16T02:11:32;21.50;64.60
17495;DHT22;8864;51.970;4.614;2022-09-16T02:14:03;21.50;64.60
17495;DHT22;8864;51.970;4.614;2022-09-16T02:16:35;21.50;64.60
17495;DHT22;8864;51.970;4.614;2022-09-16T02:19:08;21.50;64.60
17495;DHT22;8864;51.970;4.614;2022-09-16T02:21:37;21.50;64.60
17495;DHT22;8864;51.970;4.614;2022-09-16T02:24:09;21.50;64.70
17495;DHT22;8864;51.970;4.614;2022-09-16T02:26:42;21.50;64.70
17495;DHT22;8864;51.970;4.614;2022-09-16T02:29:14;21.50;64.70
17495;DHT22;8864;51.970;4.614;2022-09-16T02:31:43;21.50;64.70
17495;DHT22;8864;51.970;4.614;2022-09-16T02:34:14;21.50;64.70
17495;DHT22;8864;51.970;4.614;2022-09-16T02:36:45;21.50;64.80
17495;DHT22;8864;51.970;4.614;2022-09-16T02:39:17;21.50;64.80
17495;DHT22;8864;51.970;4.614;2022-09-16T02:41:46;21.50;64.70
17495;DHT22;8864;51.970;4.614;2022-09-16T02:44:14;21.50;64.70
17495;DHT22;8864;51.970;4.614;2022-09-16T02:46:47;21.50;64.50
17495;DHT22;8864;51.970;4.614;2022-09-16T02:49:26;21.50;64.60
17495;DHT22;8864;51.970;4.614;2022-09-16T02:51:58;21.50;64.70
17495;DHT22;8864;51.970;4.614;2022-09-16T02:54:34;21.50;64.60
17495;DHT22;8864;51.970;4.614;2022-09-16T02:57:01;21.50;64.60
17495;DHT22;8864;51.970;4.614;2022-09-16T02:59:29;21.50;64.60
17495;DHT22;8864;51.970;4.614;2022-09-16T03:01:58;21.50;64.80
17495;DHT22;8864;51.970;4.614;2022-09-16T03:04:28;21.40;64.80
17495;DHT22;8864;51.970;4.614;2022-09-16T03:06:55;21.50;64.70
17495;DHT22;8864;51.970;4.614;2022-09-16T03:09:23;21.40;64.50
17495;DHT22;8864;51.970;4.614;2022-09-16T03:12:09;21.40;64.40
17495;DHT22;8864;51.970;4.614;2022-09-16T03:15:01;21.40;64.60
17495;DHT22;8864;51.970;4.614;2022-09-16T03:17:46;21.30;64.50
17495;DHT22;8864;51.970;4.614;2022-09-16T03:20:24;21.30;64.30
17495;DHT22;8864;51.970;4.614;2022-09-16T03:23:00;21.30;64.60
17495;DHT22;8864;51.970;4.614;2022-09-16T03:25:41;21.20;64.60
17495;DHT22;8864;51.970;4.614;2022-09-16T03:28:12;21.30;64.60
17495;DHT22;8864;51.970;4.614;2022-09-16T03:30:48;21.30;64.80
17495;DHT22;8864;51.970;4.614;2022-09-16T03:33:23;21.30;64.80
17495;DHT22;8864;51.970;4.614;2022-09-16T03:35:56;21.30;65.00
17495;DHT22;8864;51.970;4.614;2022-09-16T03:38:25;21.30;64.60
17495;DHT22;8864;51.970;4.614;2022-09-16T03:40:53;21.30;64.60
17495;DHT22;8864;51.970;4.614;2022-09-16T03:43:20;21.30;64.50
17495;DHT22;8864;51.970;4.614;2022-09-16T03:45:46;21.30;64.50
17495;DHT22;8864;51.970;4.614;2022-09-16T03:48:13;21.30;64.50
17495;DHT22;8864;51.970;4.614;2022-09-16T03:50:40;21.40;64.50
17495;DHT22;8864;51.970;4.614;2022-09-16T03:53:08;21.30;64.50
17495;DHT22;8864;51.970;4.614;2022-09-16T03:55:35;21.40;64.50
17495;DHT22;8864;51.970;4.614;2022-09-16T03:58:02;21.40;64.50
17495;DHT22;8864;51.970;4.614;2022-09-16T04:00:29;21.40;64.50
17495;DHT22;8864;51.970;4.614;2022-09-16T04:02:56;21.40;64.40
17495;DHT22;8864;51.970;4.614;2022-09-16T04:05:24;21.40;64.40
17495;DHT22;8864;51.970;4.614;2022-09-16T04:07:51;21.40;64.50
17495;DHT22;8864;51.970;4.614;2022-09-16T04:10:19;21.40;64.40
17495;DHT22;8864;51.970;4.614;2022-09-16T04:12:46;21.40;64.40
17495;DHT22;8864;51.970;4.614;2022-09-16T04:15:13;21.40;64.30
17495;DHT22;8864;51.970;4.614;2022-09-16T04:17:39;21.40;64.40
17495;DHT22;8864;51.970;4.614;2022-09-16T04:20:07;21.40;64.30
17495;DHT22;8864;51.970;4.614;2022-09-16T04:22:34;21.30;64.30
17495;DHT22;8864;51.970;4.614;2022-09-16T04:25:01;21.40;64.40
17495;DHT22;8864;51.970;4.614;2022-09-16T04:27:30;21.40;64.40
17495;DHT22;8864;51.970;4.614;2022-09-16T04:29:57;21.40;64.40
17495;DHT22;8864;51.970;4.614;2022-09-16T04:32:24;21.30;64.30
17495;DHT22;8864;51.970;4.614;2022-09-16T04:34:50;21.40;64.50
17495;DHT22;8864;51.970;4.614;2022-09-16T04:37:17;21.40;64.50
17495;DHT22;8864;51.970;4.614;2022-09-16T04:39:44;21.40;64.60
17495;DHT22;8864;51.970;4.614;2022-09-16T04:42:11;21.40;64.50
17495;DHT22;8864;51.970;4.614;2022-09-16T04:44:39;21.40;64.50
17495;DHT22;8864;51.970;4.614;2022-09-16T04:47:06;21.40;64.50
17495;DHT22;8864;51.970;4.614;2022-09-16T04:49:33;21.40;64.50
17495;DHT22;8864;51.970;4.614;2022-09-16T04:52:00;21.40;64.50
17495;DHT22;8864;51.970;4.614;2022-09-16T04:54:26;21.40;64.50
17495;DHT22;8864;51.970;4.614;2022-09-16T04:56:53;21.40;64.60
17495;DHT22;8864;51.970;4.614;2022-09-16T04:59:20;21.40;64.60
17495;DHT22;8864;51.970;4.614;2022-09-16T05:01:48;21.30;64.60
17495;DHT22;8864;51.970;4.614;2022-09-16T05:04:15;21.40;64.60
17495;DHT22;8864;51.970;4.614;2022-09-16T05:06:42;21.40;64.60
17495;DHT22;8864;51.970;4.614;2022-09-16T05:09:09;21.30;64.60
17495;DHT22;8864;51.970;4.614;2022-09-16T05:11:38;21.40;64.60
17495;DHT22;8864;51.970;4.614;2022-09-16T05:14:07;21.40;64.60
17495;DHT22;8864;51.970;4.614;2022-09-16T05:16:34;21.30;64.60
17495;DHT22;8864;51.970;4.614;2022-09-16T05:19:03;21.40;64.70
17495;DHT22;8864;51.970;4.614;2022-09-16T05:21:32;21.40;64.80
17495;DHT22;8864;51.970;4.614;2022-09-16T05:23:59;21.40;64.70
17495;DHT22;8864;51.970;4.614;2022-09-16T05:26:28;21.30;64.60
17495;DHT22;8864;51.970;4.614;2022-09-16T05:28:59;21.30;64.60
17495;DHT22;8864;51.970;4.614;2022-09-16T05:31:28;21.30;64.60
17495;DHT22;8864;51.970;4.614;2022-09-16T05:33:57;21.30;64.70
17495;DHT22;8864;51.970;4.614;2022-09-16T05:36:26;21.30;64.80
17495;DHT22;8864;51.970;4.614;2022-09-16T05:38:54;21.30;65.10
17495;DHT22;8864;51.970;4.614;2022-09-16T05:41:21;21.30;64.90
17495;DHT22;8864;51.970;4.614;2022-09-16T05:43:47;21.30;64.90
17495;DHT22;8864;51.970;4.614;2022-09-16T05:46:17;21.40;64.80
17495;DHT22;8864;51.970;4.614;2022-09-16T05:48:44;21.30;64.70
17495;DHT22;8864;51.970;4.614;2022-09-16T05:51:14;21.30;64.60
17495;DHT22;8864;51.970;4.614;2022-09-16T05:53:42;21.30;64.50
17495;DHT22;8864;51.970;4.614;2022-09-16T05:56:11;21.30;64.50
17495;DHT22;8864;51.970;4.614;2022-09-16T05:58:39;21.30;65.30
17495;DHT22;8864;51.970;4.614;2022-09-16T06:01:08;21.30;64.50
17495;DHT22;8864;51.970;4.614;2022-09-16T06:03:36;21.30;64.50
17495;DHT22;8864;51.970;4.614;2022-09-16T06:06:05;21.30;64.50
17495;DHT22;8864;51.970;4.614;2022-09-16T06:08:34;21.20;64.40
17495;DHT22;8864;51.970;4.614;2022-09-16T06:11:04;21.20;64.30
17495;DHT22;8864;51.970;4.614;2022-09-16T06:13:31;21.20;64.20
17495;DHT22;8864;51.970;4.614;2022-09-16T06:15:58;21.10;63.30
17495;DHT22;8864;51.970;4.614;2022-09-16T06:18:27;20.90;63.70
17495;DHT22;8864;51.970;4.614;2022-09-16T06:20:54;20.70;63.40
17495;DHT22;8864;51.970;4.614;2022-09-16T06:23:21;20.50;61.90
17495;DHT22;8864;51.970;4.614;2022-09-16T06:25:48;20.30;63.00
17495;DHT22;8864;51.970;4.614;2022-09-16T06:28:16;20.30;63.00
17495;DHT22;8864;51.970;4.614;2022-09-16T06:30:43;20.30;62.90
17495;DHT22;8864;51.970;4.614;2022-09-16T06:33:10;20.20;63.10
17495;DHT22;8864;51.970;4.614;2022-09-16T06:35:37;20.30;63.30
17495;DHT22;8864;51.970;4.614;2022-09-16T06:38:04;20.40;63.40
17495;DHT22;8864;51.970;4.614;2022-09-16T06:40:30;20.40;63.60
17495;DHT22;8864;51.970;4.614;2022-09-16T06:42:57;20.50;63.30
17495;DHT22;8864;51.970;4.614;2022-09-16T06:45:25;20.50;63.10
17495;DHT22;8864;51.970;4.614;2022-09-16T06:47:57;20.50;63.20
17495;DHT22;8864;51.970;4.614;2022-09-16T06:50:25;20.50;63.40
17495;DHT22;8864;51.970;4.614;2022-09-16T06:52:51;20.60;63.40
17495;DHT22;8864;51.970;4.614;2022-09-16T06:55:18;20.60;63.40
17495;DHT22;8864;51.970;4.614;2022-09-16T06:57:45;20.60;63.40
17495;DHT22;8864;51.970;4.614;2022-09-16T07:00:12;20.70;63.40
17495;DHT22;8864;51.970;4.614;2022-09-16T07:02:41;20.70;63.60
17495;DHT22;8864;51.970;4.614;2022-09-16T07:05:08;20.70;63.60
17495;DHT22;8864;51.970;4.614;2022-09-16T07:07:36;20.70;63.60
17495;DHT22;8864;51.970;4.614;2022-09-16T07:10:05;20.80;63.60
17495;DHT22;8864;51.970;4.614;2022-09-16T07:12:32;20.80;63.70
17495;DHT22;8864;51.970;4.614;2022-09-16T07:14:58;20.90;63.90
17495;DHT22;8864;51.970;4.614;2022-09-16T07:17:25;20.90;63.90
17495;DHT22;8864;51.970;4.614;2022-09-16T07:19:54;20.90;64.00
17495;DHT22;8864;51.970;4.614;2022-09-16T07:22:21;20.90;64.20
17495;DHT22;8864;51.970;4.614;2022-09-16T07:24:47;21.00;64.30
17495;DHT22;8864;51.970;4.614;2022-09-16T07:27:14;21.00;64.50
17495;DHT22;8864;51.970;4.614;2022-09-16T07:29:41;21.00;64.50
17495;DHT22;8864;51.970;4.614;2022-09-16T07:32:08;21.10;64.40
17495;DHT22;8864;51.970;4.614;2022-09-16T07:34:35;21.10;65.20
17495;DHT22;8864;51.970;4.614;2022-09-16T07:37:03;21.10;64.50
17495;DHT22;8864;51.970;4.614;2022-09-16T07:39:30;21.10;64.30
17495;DHT22;8864;51.970;4.614;2022-09-16T07:41:57;21.10;64.00
17495;DHT22;8864;51.970;4.614;2022-09-16T07:44:24;21.10;64.10
17495;DHT22;8864;51.970;4.614;2022-09-16T07:46:51;21.10;64.20
17495;DHT22;8864;51.970;4.614;2022-09-16T07:49:18;21.10;64.30
17495;DHT22;8864;51.970;4.614;2022-09-16T07:51:45;21.10;64.20
17495;DHT22;8864;51.970;4.614;2022-09-16T07:54:15;21.10;64.20
17495;DHT22;8864;51.970;4.614;2022-09-16T07:56:43;21.10;64.20
17495;DHT22;8864;51.970;4.614;2022-09-16T07:59:13;21.10;64.20
17495;DHT22;8864;51.970;4.614;2022-09-16T08:01:40;21.00;64.20
17495;DHT22;8864;51.970;4.614;2022-09-16T08:04:06;21.00;64.20
17495;DHT22;8864;51.970;4.614;2022-09-16T08:06:37;21.10;64.30
17495;DHT22;8864;51.970;4.614;2022-09-16T08:09:04;21.10;64.20
17495;DHT22;8864;51.970;4.614;2022-09-16T08:11:32;21.10;64.20
17495;DHT22;8864;51.970;4.614;2022-09-16T08:13:59;21.10;65.00
17495;DHT22;8864;51.970;4.614;2022-09-16T08:16:27;21.10;64.20
17495;DHT22;8864;51.970;4.614;2022-09-16T08:18:55;21.10;64.20
17495;DHT22;8864;51.970;4.614;2022-09-16T08:21:24;21.10;64.20
17495;DHT22;8864;51.970;4.614;2022-09-16T08:23:51;21.10;64.20
17495;DHT22;8864;51.970;4.614;2022-09-16T08:26:19;21.10;64.20
17495;DHT22;8864;51.970;4.614;2022-09-16T08:28:48;21.00;63.80
17495;DHT22;8864;51.970;4.614;2022-09-16T08:31:15;21.00;64.50
17495;DHT22;8864;51.970;4.614;2022-09-16T08:33:43;20.90;64.50
17495;DHT22;8864;51.970;4.614;2022-09-16T08:36:12;20.90;64.60
17495;DHT22;8864;51.970;4.614;2022-09-16T08:38:41;20.80;63.50
17495;DHT22;8864;51.970;4.614;2022-09-16T08:41:22;20.70;64.50
17495;DHT22;8864;51.970;4.614;2022-09-16T08:43:58;20.70;64.50
17495;DHT22;8864;51.970;4.614;2022-09-16T08:46:33;20.80;64.40
17495;DHT22;8864;51.970;4.614;2022-09-16T08:49:12;20.80;64.40
17495;DHT22;8864;51.970;4.614;2022-09-16T08:51:42;20.80;64.60
17495;DHT22;8864;51.970;4.614;2022-09-16T08:54:14;20.90;64.50
17495;DHT22;8864;51.970;4.614;2022-09-16T08:56:44;20.90;64.50
17495;DHT22;8864;51.970;4.614;2022-09-16T08:59:18;20.90;64.50
17495;DHT22;8864;51.970;4.614;2022-09-16T09:01:49;21.00;64.60
17495;DHT22;8864;51.970;4.614;2022-09-16T09:04:18;21.00;64.50
17495;DHT22;8864;51.970;4.614;2022-09-16T09:06:57;20.90;64.50
17495;DHT22;8864;51.970;4.614;2022-09-16T09:09:58;20.80;64.30
17495;DHT22;8864;51.970;4.614;2022-09-16T09:12:35;20.70;64.60
17495;DHT22;8864;51.970;4.614;2022-09-16T09:15:18;20.70;64.70
17495;DHT22;8864;51.970;4.614;2022-09-16T09:17:55;20.80;65.00
17495;DHT22;8864;51.970;4.614;2022-09-16T09:20:34;20.80;65.00
17495;DHT22;8864;51.970;4.614;2022-09-16T09:23:27;20.80;65.10
17495;DHT22;8864;51.970;4.614;2022-09-16T09:26:00;20.80;65.10
17495;DHT22;8864;51.970;4.614;2022-09-16T09:28:57;20.90;65.20
17495;DHT22;8864;51.970;4.614;2022-09-16T09:31:36;20.90;65.20
17495;DHT22;8864;51.970;4.614;2022-09-16T09:34:15;21.00;65.30
17495;DHT22;8864;51.970;4.614;2022-09-16T09:37:03;20.90;65.40
17495;DHT22;8864;51.970;4.614;2022-09-16T09:39:45;20.90;65.60
17495;DHT22;8864;51.970;4.614;2022-09-16T09:42:18;20.90;65.50
17495;DHT22;8864;51.970;4.614;2022-09-16T09:44:51;20.90;65.40
17495;DHT22;8864;51.970;4.614;2022-09-16T09:47:25;20.90;65.30
17495;DHT22;8864;51.970;4.614;2022-09-16T09:50:04;21.00;65.30
17495;DHT22;8864;51.970;4.614;2022-09-16T09:52:38;20.90;65.10
17495;DHT22;8864;51.970;4.614;2022-09-16T09:55:15;20.90;64.80
17495;DHT22;8864;51.970;4.614;2022-09-16T10:00:29;20.90;64.80
17495;DHT22;8864;51.970;4.614;2022-09-16T10:03:05;20.90;64.80
17495;DHT22;8864;51.970;4.614;2022-09-16T10:05:32;20.90;64.90
17495;DHT22;8864;51.970;4.614;2022-09-16T10:08:20;20.90;65.00
17495;DHT22;8864;51.970;4.614;2022-09-16T10:10:49;20.90;64.80
17495;DHT22;8864;51.970;4.614;2022-09-16T10:13:17;20.90;65.00
17495;DHT22;8864;51.970;4.614;2022-09-16T10:15:45;20.90;65.10
17495;DHT22;8864;51.970;4.614;2022-09-16T10:18:24;21.00;65.20
17495;DHT22;8864;51.970;4.614;2022-09-16T10:20:59;21.00;65.90
17495;DHT22;8864;51.970;4.614;2022-09-16T10:23:27;21.00;65.10
17495;DHT22;8864;51.970;4.614;2022-09-16T10:26:05;20.90;64.70
17495;DHT22;8864;51.970;4.614;2022-09-16T10:28:33;20.80;64.70
17495;DHT22;8864;51.970;4.614;2022-09-16T10:31:00;20.80;65.00
17495;DHT22;8864;51.970;4.614;2022-09-16T10:33:30;20.80;65.10
17495;DHT22;8864;51.970;4.614;2022-09-16T10:36:02;20.90;64.70
17495;DHT22;8864;51.970;4.614;2022-09-16T10:38:35;20.90;65.10
17495;DHT22;8864;51.970;4.614;2022-09-16T10:41:07;20.90;64.90
17495;DHT22;8864;51.970;4.614;2022-09-16T10:43:36;20.90;65.00
17495;DHT22;8864;51.970;4.614;2022-09-16T10:46:04;20.90;64.60
17495;DHT22;8864;51.970;4.614;2022-09-16T10:48:33;20.90;64.80
17495;DHT22;8864;51.970;4.614;2022-09-16T10:51:02;21.00;64.90
17495;DHT22;8864;51.970;4.614;2022-09-16T10:53:31;20.90;64.70
17495;DHT22;8864;51.970;4.614;2022-09-16T10:56:00;21.00;64.80
17495;DHT22;8864;51.970;4.614;2022-09-16T10:58:27;21.00;64.80
17495;DHT22;8864;51.970;4.614;2022-09-16T11:01:05;21.00;64.80
17495;DHT22;8864;51.970;4.614;2022-09-16T11:03:58;21.00;64.80
17495;DHT22;8864;51.970;4.614;2022-09-16T11:06:42;21.00;65.00
17495;DHT22;8864;51.970;4.614;2022-09-16T11:09:20;21.10;65.00
17495;DHT22;8864;51.970;4.614;2022-09-16T11:11:58;21.00;64.80
17495;DHT22;8864;51.970;4.614;2022-09-16T11:14:38;21.00;64.80
17495;DHT22;8864;51.970;4.614;2022-09-16T11:17:21;20.90;63.60
17495;DHT22;8864;51.970;4.614;2022-09-16T11:20:08;20.80;64.30
17495;DHT22;8864;51.970;4.614;2022-09-16T11:22:45;20.80;63.80
17495;DHT22;8864;51.970;4.614;2022-09-16T11:25:29;20.80;63.60
17495;DHT22;8864;51.970;4.614;2022-09-16T11:28:04;20.80;64.20
17495;DHT22;8864;51.970;4.614;2022-09-16T11:30:38;20.80;63.60
17495;DHT22;8864;51.970;4.614;2022-09-16T11:33:14;20.70;63.60
17495;DHT22;8864;51.970;4.614;2022-09-16T11:36:04;20.80;64.90
17495;DHT22;8864;51.970;4.614;2022-09-16T11:38:37;20.90;64.90
17495;DHT22;8864;51.970;4.614;2022-09-16T11:41:12;21.00;64.90
17495;DHT22;8864;51.970;4.614;2022-09-16T11:43:53;21.00;64.50
17495;DHT22;8864;51.970;4.614;2022-09-16T11:46:27;21.10;64.40
17495;DHT22;8864;51.970;4.614;2022-09-16T11:51:59;21.20;64.10
17495;DHT22;8864;51.970;4.614;2022-09-16T11:54:45;21.30;63.90
17495;DHT22;8864;51.970;4.614;2022-09-16T11:57:19;21.30;63.90
17495;DHT22;8864;51.970;4.614;2022-09-16T11:59:50;21.40;63.90
17495;DHT22;8864;51.970;4.614;2022-09-16T12:02:23;21.40;63.70
17495;DHT22;8864;51.970;4.614;2022-09-16T12:04:54;21.40;63.60
17495;DHT22;8864;51.970;4.614;2022-09-16T12:07:27;21.40;63.60
17495;DHT22;8864;51.970;4.614;2022-09-16T12:10:00;21.50;63.50
17495;DHT22;8864;51.970;4.614;2022-09-16T12:12:33;21.50;63.60
17495;DHT22;8864;51.970;4.614;2022-09-16T12:15:05;21.50;63.60
17495;DHT22;8864;51.970;4.614;2022-09-16T12:17:34;21.50;63.50
17495;DHT22;8864;51.970;4.614;2022-09-16T12:20:06;21.50;63.50
17495;DHT22;8864;51.970;4.614;2022-09-16T12:22:39;21.50;63.40
17495;DHT22;8864;51.970;4.614;2022-09-16T12:25:10;21.60;63.30
17495;DHT22;8864;51.970;4.614;2022-09-16T12:27:42;21.60;63.20
17495;DHT22;8864;51.970;4.614;2022-09-16T12:30:15;21.60;63.10
17495;DHT22;8864;51.970;4.614;2022-09-16T12:32:48;21.60;63.10
17495;DHT22;8864;51.970;4.614;2022-09-16T12:35:19;21.70;63.20
17495;DHT22;8864;51.970;4.614;2022-09-16T12:37:50;21.60;63.20
17495;DHT22;8864;51.970;4.614;2022-09-16T12:40:19;21.70;63.20
17495;DHT22;8864;51.970;4.614;2022-09-16T12:43:19;21.60;63.00
17495;DHT22;8864;51.970;4.614;2022-09-16T12:46:15;21.60;63.00
17495;DHT22;8864;51.970;4.614;2022-09-16T12:49:13;21.70;63.80
17495;DHT22;8864;51.970;4.614;2022-09-16T12:55:08;21.70;62.90
17495;DHT22;8864;51.970;4.614;2022-09-16T12:57:50;21.70;62.90
17495;DHT22;8864;51.970;4.614;2022-09-16T13:00:22;21.70;62.90
17495;DHT22;8864;51.970;4.614;2022-09-16T13:02:51;21.70;62.90
17495;DHT22;8864;51.970;4.614;2022-09-16T13:05:26;21.70;62.90
17495;DHT22;8864;51.970;4.614;2022-09-16T13:07:54;21.70;62.90
17495;DHT22;8864;51.970;4.614;2022-09-16T13:10:29;21.70;63.00
17495;DHT22;8864;51.970;4.614;2022-09-16T13:12:59;21.70;63.10
17495;DHT22;8864;51.970;4.614;2022-09-16T13:15:28;21.70;63.20
17495;DHT22;8864;51.970;4.614;2022-09-16T13:18:07;21.70;63.20
17495;DHT22;8864;51.970;4.614;2022-09-16T13:20:39;21.70;63.20
17495;DHT22;8864;51.970;4.614;2022-09-16T13:23:12;21.70;63.20
17495;DHT22;8864;51.970;4.614;2022-09-16T13:25:47;21.60;63.30
17495;DHT22;8864;51.970;4.614;2022-09-16T13:28:34;21.70;63.40
17495;DHT22;8864;51.970;4.614;2022-09-16T13:31:19;21.70;63.50
17495;DHT22;8864;51.970;4.614;2022-09-16T13:34:09;21.70;63.50
17495;DHT22;8864;51.970;4.614;2022-09-16T13:36:39;21.60;63.50
17495;DHT22;8864;51.970;4.614;2022-09-16T13:39:11;21.60;63.60
17495;DHT22;8864;51.970;4.614;2022-09-16T13:41:42;21.60;63.60
17495;DHT22;8864;51.970;4.614;2022-09-16T13:44:38;21.60;63.70
17495;DHT22;8864;51.970;4.614;2022-09-16T13:47:16;21.60;63.80
17495;DHT22;8864;51.970;4.614;2022-09-16T13:49:47;21.60;63.90
17495;DHT22;8864;51.970;4.614;2022-09-16T13:52:19;21.60;64.00
17495;DHT22;8864;51.970;4.614;2022-09-16T13:54:48;21.50;63.90
17495;DHT22;8864;51.970;4.614;2022-09-16T13:57:26;21.50;64.00
17495;DHT22;8864;51.970;4.614;2022-09-16T14:00:10;21.60;64.00
17495;DHT22;8864;51.970;4.614;2022-09-16T14:05:44;21.50;64.00
17495;DHT22;8864;51.970;4.614;2022-09-16T14:08:19;21.50;64.10
17495;DHT22;8864;51.970;4.614;2022-09-16T14:10:55;21.50;64.10
17495;DHT22;8864;51.970;4.614;2022-09-16T14:13:34;21.60;64.30
17495;DHT22;8864;51.970;4.614;2022-09-16T14:16:01;21.60;64.30
17495;DHT22;8864;51.970;4.614;2022-09-16T14:18:32;21.60;64.30
17495;DHT22;8864;51.970;4.614;2022-09-16T14:21:00;21.60;64.40
17495;DHT22;8864;51.970;4.614;2022-09-16T14:23:28;21.60;64.40
17495;DHT22;8864;51.970;4.614;2022-09-16T14:25:55;21.70;64.50
17495;DHT22;8864;51.970;4.614;2022-09-16T14:28:25;21.70;64.40
17495;DHT22;8864;51.970;4.614;2022-09-16T14:30:55;21.70;64.30
17495;DHT22;8864;51.970;4.614;2022-09-16T14:33:30;21.70;64.20
17495;DHT22;8864;51.970;4.614;2022-09-16T14:35:59;21.70;64.10
17495;DHT22;8864;51.970;4.614;2022-09-16T14:38:32;21.70;64.10
17495;DHT22;8864;51.970;4.614;2022-09-16T14:41:00;21.70;64.10
17495;DHT22;8864;51.970;4.614;2022-09-16T14:43:29;21.80;64.20
17495;DHT22;8864;51.970;4.614;2022-09-16T14:45:58;21.80;65.00
17495;DHT22;8864;51.970;4.614;2022-09-16T14:48:32;21.80;64.20
17495;DHT22;8864;51.970;4.614;2022-09-16T14:51:01;21.80;64.20
17495;DHT22;8864;51.970;4.614;2022-09-16T14:53:31;21.80;64.30
17495;DHT22;8864;51.970;4.614;2022-09-16T14:55:58;21.80;64.10
17495;DHT22;8864;51.970;4.614;2022-09-16T14:58:28;21.80;64.10
17495;DHT22;8864;51.970;4.614;2022-09-16T15:01:00;21.80;64.10
17495;DHT22;8864;51.970;4.614;2022-09-16T15:03:33;21.80;63.90
17495;DHT22;8864;51.970;4.614;2022-09-16T15:06:08;21.80;63.50
17495;DHT22;8864;51.970;4.614;2022-09-16T15:08:41;21.80;63.00
17495;DHT22;8864;51.970;4.614;2022-09-16T15:11:11;21.80;62.50
17495;DHT22;8864;51.970;4.614;2022-09-16T15:13:41;21.90;62.10
17495;DHT22;8864;51.970;4.614;2022-09-16T15:16:10;21.90;61.60
17495;DHT22;8864;51.970;4.614;2022-09-16T15:18:41;21.90;61.50
17495;DHT22;8864;51.970;4.614;2022-09-16T15:21:10;21.90;61.10
17495;DHT22;8864;51.970;4.614;2022-09-16T15:23:38;21.90;61.00
17495;DHT22;8864;51.970;4.614;2022-09-16T15:26:12;21.90;60.70
17495;DHT22;8864;51.970;4.614;2022-09-16T15:28:55;21.90;60.40
17495;DHT22;8864;51.970;4.614;2022-09-16T15:31:40;21.90;61.20
17495;DHT22;8864;51.970;4.614;2022-09-16T15:34:19;21.90;60.40
17495;DHT22;8864;51.970;4.614;2022-09-16T15:36:47;21.90;60.40
17495;DHT22;8864;51.970;4.614;2022-09-16T15:39:23;21.90;60.70
17495;DHT22;8864;51.970;4.614;2022-09-16T15:42:02;21.90;60.30
17495;DHT22;8864;51.970;4.614;2022-09-16T15:44:31;21.90;60.00
17495;DHT22;8864;51.970;4.614;2022-09-16T15:46:59;21.80;59.90
17495;DHT22;8864;51.970;4.614;2022-09-16T15:49:28;21.80;59.80
17495;DHT22;8864;51.970;4.614;2022-09-16T15:52:03;21.90;60.80
17495;DHT22;8864;51.970;4.614;2022-09-16T15:54:35;21.90;60.20
17495;DHT22;8864;51.970;4.614;2022-09-16T15:57:06;21.90;59.80
17495;DHT22;8864;51.970;4.614;2022-09-16T15:59:39;21.90;59.50
17495;DHT22;8864;51.970;4.614;2022-09-16T16:02:21;21.90;59.30
17495;DHT22;8864;51.970;4.614;2022-09-16T16:04:49;21.90;59.00
17495;DHT22;8864;51.970;4.614;2022-09-16T16:07:36;21.90;58.70
17495;DHT22;8864;51.970;4.614;2022-09-16T16:10:11;21.90;58.60
17495;DHT22;8864;51.970;4.614;2022-09-16T16:12:39;21.90;58.30
17495;DHT22;8864;51.970;4.614;2022-09-16T16:15:08;22.00;58.40
17495;DHT22;8864;51.970;4.614;2022-09-16T16:17:35;22.00;58.30
17495;DHT22;8864;51.970;4.614;2022-09-16T16:20:02;22.00;58.20
17495;DHT22;8864;51.970;4.614;2022-09-16T16:22:29;22.00;58.10
17495;DHT22;8864;51.970;4.614;2022-09-16T16:24:57;22.00;58.10
17495;DHT22;8864;51.970;4.614;2022-09-16T16:27:23;22.00;58.00
17495;DHT22;8864;51.970;4.614;2022-09-16T16:29:50;22.00;57.80